PST,Max TemperatureF,Mean TemperatureF,Min TemperatureF,Max Dew PointF,MeanDew PointF,Min DewpointF,Max Humidity, Mean Humidity, Min Humidity, Max Sea Level PressureIn, Mean Sea Level PressureIn, Min Sea Level PressureIn, Max VisibilityMiles, Mean VisibilityMiles, Min VisibilityMiles, Max Wind SpeedMPH, Mean Wind SpeedMPH, Max Gust SpeedMPH,PrecipitationIn, CloudCover, Events, WindDirDegrees
2011-11-1,77,60,43,46,25,6,92,50,8,30.07,30.03,29.98,10,10,10,25,11,31,0.00,0,,5
2011-11-2,76,57,37,36,27,10,70,42,13,30.10,30.03,29.98,10,10,10,12,2,13,0.00,0,,299
2011-11-3,61,47,32,44,37,30,92,72,51,29.98,29.88,29.77,10,9,4,16,3,24,T,4,,283
2011-11-4,62,46,30,40,34,30,100,68,36,29.91,29.84,29.80,10,6,1,15,3,17,0.00,1,Fog,309
2011-11-5,54,44,33,49,43,31,100,77,54,29.99,29.90,29.83,10,7,0,15,3,18,0.76,7,Fog-Rain,167
2011-11-6,59,48,37,47,42,36,100,83,66,30.12,29.98,29.89,10,4,0,8,1,9,0.01,5,Fog,297
2011-11-7,63,48,33,44,37,32,100,73,46,30.26,30.19,30.13,10,5,0,8,2,12,0.00,1,Fog,272
2011-11-8,63,48,32,44,36,30,100,68,36,30.32,30.27,30.23,10,6,0,7,2,10,0.00,2,Fog,267
2011-11-9,68,50,32,44,35,30,100,66,32,30.28,30.23,30.12,10,6,1,15,2,20,0.00,1,Fog,221
2011-11-10,70,51,31,43,35,30,100,63,26,30.15,30.05,29.88,10,7,1,16,3,21,0.00,1,Fog,219
2011-11-11,57,47,36,50,45,36,96,79,62,29.86,29.79,29.74,10,8,1,15,3,16,0.16,6,Rain,349
2011-11-12,66,56,45,52,49,45,100,78,56,29.95,29.87,29.81,10,8,0,10,2,14,0.00,4,Fog,343
2011-11-13,69,55,40,49,45,39,100,71,42,29.97,29.94,29.91,10,8,0,7,3,,0.00,3,Fog,284
2011-11-14,68,55,41,48,44,40,100,74,48,30.06,30.00,29.95,10,6,0,7,1,10,0.00,1,Fog,356
2011-11-15,70,53,36,46,41,36,100,69,37,30.18,30.11,30.05,10,6,0,13,3,16,0.00,2,Fog,356
2011-11-16,68,53,37,49,43,37,100,74,48,30.22,30.18,30.14,10,6,0,8,2,9,0.00,1,Fog,234
2011-11-17,64,52,39,52,45,39,100,82,64,30.20,30.12,30.02,10,5,0,13,2,17,0.01,5,Fog,204
2011-11-18,56,47,37,48,44,38,93,82,71,30.03,29.95,29.88,10,10,5,20,4,24,0.03,5,Rain,251
2011-11-19,53,42,30,45,35,28,100,77,54,29.99,29.91,29.64,10,3,0,22,5,31,0.27,5,Fog-Rain,151
2011-11-20,56,48,40,47,44,38,96,81,66,30.00,29.79,29.64,10,9,3,16,6,21,0.29,6,Rain,55
2011-11-21,57,48,38,47,43,37,100,83,66,30.25,30.17,30.03,10,8,0,9,2,13,0.00,5,Fog,192
2011-11-22,59,50,40,48,45,39,100,79,57,30.25,30.17,30.04,10,10,7,10,2,13,0.00,8,,145
2011-11-23,57,53,49,51,47,44,93,78,62,30.03,29.88,29.80,10,9,4,18,7,24,0.26,8,Rain,152
2011-11-24,59,52,44,52,49,43,100,86,72,30.21,30.00,29.83,10,7,2,10,2,14,0.58,7,Rain,356
2011-11-25,58,50,41,50,46,39,100,86,72,30.37,30.32,30.22,10,6,0,8,1,12,0.05,6,Fog-Rain,354
2011-11-26,61,50,38,50,45,39,100,82,64,30.38,30.34,30.27,10,3,0,7,1,9,0.00,7,Fog,259
2011-11-27,59,51,42,49,46,42,100,86,72,30.34,30.28,30.25,10,3,0,5,0,7,0.00,4,Fog,353
2011-11-28,64,53,41,50,44,41,100,80,60,30.31,30.25,30.19,10,3,0,7,1,8,0.00,4,Fog,166
2011-11-29,64,52,39,52,43,37,100,78,56,30.26,30.20,30.14,10,2,0,7,1,8,0.00,3,Fog,167
2011-11-30,70,52,34,42,32,18,100,58,16,30.25,30.19,30.12,10,7,0,33,10,41,0.00,0,Fog,14